Time;durP1;ratioP1;P1;durP2;ratioP2;P2;SDS_P1;SDS_P2;PMS_P1;PMS_P2;Temp;Humidity;BMP_temperature;BMP_pressure;BME280_temperature;BME280_humidity;BME280_pressure;Samples;Min_cycle;Max_cycle;Signal;HPM_P1;HPM_P2
2023/08/05 00:00:22;;;;;;;8.07;5.90;;;;;;;20.98;59.73;98561.47;6903691;28;20228;-83
2023/08/05 00:03:44;;;;;;;8.87;5.93;;;;;;;21.54;59.66;98648.00;6902920;28;20241;-83
2023/08/05 00:07:07;;;;;;;7.30;6.53;;;;;;;21.83;58.57;98643.53;6900574;28;20659;-82
2023/08/05 00:10:29;;;;;;;8.80;5.57;;;;;;;21.51;57.86;98569.81;6899044;28;20263;-84
2023/08/05 00:13:50;;;;;;;10.60;5.77;;;;;;;21.94;57.10;98632.22;6909812;28;20231;-82
2023/08/05 00:17:11;;;;;;;6.57;5.77;;;;;;;22.04;57.26;98631.34;6899342;28;20209;-83
2023/08/05 00:20:33;;;;;;;7.70;5.40;;;;;;;22.00;57.23;98643.97;6898694;28;20324;-83
2023/08/05 00:23:56;;;;;;;8.23;5.33;;;;;;;21.84;58.05;98631.44;6898661;28;20307;-83
2023/08/05 00:27:17;;;;;;;7.87;5.40;;;;;;;21.81;57.73;98637.47;6897059;28;20690;-82
2023/08/05 00:30:39;;;;;;;6.47;5.30;;;;;;;21.72;57.81;98640.00;6897406;28;20321;-83
2023/08/05 00:34:00;;;;;;;7.97;5.73;;;;;;;21.69;58.07;98647.97;6897196;28;20288;-83
2023/08/05 00:37:22;;;;;;;6.93;5.47;;;;;;;21.72;57.79;98631.75;6895966;28;20287;-82
2023/08/05 00:40:45;;;;;;;5.83;5.17;;;;;;;21.72;57.88;98625.47;6896022;28;20296;-83
2023/08/05 00:44:06;;;;;;;10.53;5.70;;;;;;;21.77;57.48;98617.22;6896076;28;20264;-82
2023/08/05 00:47:28;;;;;;;5.97;5.37;;;;;;;21.43;57.82;98591.53;6894838;28;20212;-82
2023/08/05 00:50:49;;;;;;;8.80;6.07;;;;;;;21.86;57.14;98608.09;6895339;28;20232;-83
2023/08/05 00:54:11;;;;;;;7.97;5.20;;;;;;;21.86;57.40;98613.59;6895011;28;20221;-82
2023/08/05 00:57:35;;;;;;;6.73;5.60;;;;;;;21.78;57.55;98614.16;6894401;28;20244;-83
2023/08/05 01:00:56;;;;;;;8.20;5.40;;;;;;;21.72;57.59;98609.81;6894444;28;20267;-83
2023/08/05 01:04:18;;;;;;;7.57;5.87;;;;;;;21.88;57.37;98602.31;6896929;28;20219;-82
2023/08/05 01:07:42;;;;;;;9.17;5.70;;;;;;;21.91;57.52;98610.84;6895459;28;20684;-82
2023/08/05 01:11:04;;;;;;;9.60;6.13;;;;;;;21.60;57.82;98623.00;6896041;28;20224;-82
2023/08/05 01:14:27;;;;;;;9.73;5.83;;;;;;;21.60;58.77;98628.47;6895878;28;20317;-83
2023/08/05 01:17:49;;;;;;;7.63;5.87;;;;;;;21.68;58.37;98624.38;6894980;28;20263;-83
2023/08/05 01:21:14;;;;;;;6.83;6.07;;;;;;;21.50;58.99;98625.78;6895135;28;20711;-82
2023/08/05 01:24:40;;;;;;;6.20;5.70;;;;;;;21.59;58.56;98623.28;6896343;28;20196;-83
2023/08/05 01:28:03;;;;;;;8.23;5.43;;;;;;;21.71;58.29;98629.31;6895633;28;20192;-82
2023/08/05 01:31:25;;;;;;;7.13;5.60;;;;;;;21.60;58.39;98622.19;6895717;28;20251;-83
2023/08/05 01:34:48;;;;;;;8.20;5.40;;;;;;;21.79;57.80;98637.78;6886741;28;20321;-83
2023/08/05 01:38:09;;;;;;;9.13;5.70;;;;;;;21.83;57.82;98625.13;6895220;28;20232;-83
2023/08/05 01:41:31;;;;;;;5.90;5.03;;;;;;;21.33;57.62;98549.59;6895400;28;20378;-83
2023/08/05 01:44:54;;;;;;;9.33;5.50;;;;;;;21.16;57.83;98518.94;6895952;28;20288;-83
2023/08/05 01:48:15;;;;;;;8.73;5.43;;;;;;;21.78;57.77;98627.88;6894885;28;20292;-83
2023/08/05 01:51:37;;;;;;;6.63;4.83;;;;;;;21.63;57.48;98588.69;6898298;28;20296;-83
2023/08/05 01:54:58;;;;;;;7.80;5.73;;;;;;;21.68;58.02;98622.47;6900669;28;20729;-83
2023/08/05 01:58:20;;;;;;;5.67;4.97;;;;;;;21.51;58.66;98632.91;6899893;28;20245;-83
2023/08/05 02:01:44;;;;;;;5.87;5.30;;;;;;;21.57;58.66;98609.84;6900395;28;20238;-83
2023/08/05 02:05:06;;;;;;;7.33;5.23;;;;;;;21.77;57.72;98609.78;6893599;28;20263;-83
2023/08/05 02:08:28;;;;;;;8.37;5.27;;;;;;;21.73;57.86;98613.38;6899957;28;20208;-83
2023/08/05 02:11:49;;;;;;;6.00;5.40;;;;;;;21.66;58.23;98610.09;6899871;28;20716;-83
2023/08/05 02:15:11;;;;;;;7.60;5.90;;;;;;;21.66;58.42;98608.16;6898937;28;20580;-83
2023/08/05 02:18:34;;;;;;;9.17;5.90;;;;;;;21.72;58.05;98582.34;6898666;28;20212;-83
2023/08/05 02:21:55;;;;;;;6.83;5.23;;;;;;;21.65;57.83;98579.06;6891984;28;20720;-84
2023/08/05 02:25:17;;;;;;;6.13;5.07;;;;;;;21.65;58.07;98575.53;6899787;28;20221;-84
2023/08/05 02:28:38;;;;;;;6.07;5.47;;;;;;;21.66;58.02;98566.97;6900020;28;20696;-83
2023/08/05 02:32:00;;;;;;;6.73;5.30;;;;;;;21.45;58.24;98553.66;6900251;28;20302;-83
2023/08/05 02:35:23;;;;;;;8.93;5.00;;;;;;;21.35;58.24;98551.75;6900085;28;20698;-84
2023/08/05 02:38:45;;;;;;;5.70;5.20;;;;;;;21.25;58.79;98542.75;6875517;28;20241;-83
2023/08/05 02:42:07;;;;;;;8.17;6.43;;;;;;;21.28;58.89;98540.28;6900062;28;20236;-84
2023/08/05 02:45:28;;;;;;;5.80;5.20;;;;;;;21.31;58.44;98508.72;6900159;28;20685;-83
2023/08/05 02:48:50;;;;;;;8.03;5.50;;;;;;;21.43;58.00;98545.69;6899518;28;20295;-84
2023/08/05 02:52:12;;;;;;;7.97;5.93;;;;;;;21.29;58.66;98549.31;6901109;28;20580;-83
2023/08/05 02:55:34;;;;;;;5.93;5.43;;;;;;;21.22;59.08;98557.03;6900418;28;20677;-82
2023/08/05 02:58:55;;;;;;;9.20;5.63;;;;;;;21.24;58.84;98572.09;6900133;28;20572;-83
2023/08/05 03:02:17;;;;;;;8.47;5.87;;;;;;;21.07;59.13;98557.09;6899375;28;20319;-82
2023/08/05 03:05:38;;;;;;;9.20;6.53;;;;;;;21.06;59.30;98566.41;6899897;28;20274;-82
2023/08/05 03:09:01;;;;;;;6.30;5.70;;;;;;;21.24;58.95;98572.09;6899468;28;20576;-83
2023/08/05 03:12:23;;;;;;;7.63;6.13;;;;;;;21.10;59.16;98580.38;6898014;28;20705;-83
2023/08/05 03:15:44;;;;;;;8.90;5.40;;;;;;;21.30;58.81;98592.91;6897628;28;20267;-82
2023/08/05 03:19:06;;;;;;;7.87;5.33;;;;;;;21.66;57.70;98602.66;6899882;28;20395;-82
2023/08/05 03:22:27;;;;;;;6.90;5.50;;;;;;;21.68;57.81;98597.75;6899821;28;20262;-82
2023/08/05 03:25:50;;;;;;;9.03;5.90;;;;;;;21.72;56.91;98609.00;6899392;28;20208;-82
2023/08/05 03:29:12;;;;;;;8.83;5.57;;;;;;;21.18;58.42;98602.56;6901135;28;20309;-82
2023/08/05 03:32:33;;;;;;;6.87;6.10;;;;;;;20.96;58.78;98607.53;6897732;28;20235;-83
2023/08/05 03:35:55;;;;;;;7.80;5.87;;;;;;;21.33;58.04;98606.09;6895193;28;20231;-82
2023/08/05 03:39:17;;;;;;;7.47;5.83;;;;;;;21.34;58.41;98617.88;6897575;28;20212;-81
2023/08/05 03:42:40;;;;;;;8.67;5.23;;;;;;;21.29;58.27;98628.84;6900077;28;20223;-82
2023/08/05 03:46:02;;;;;;;6.63;5.37;;;;;;;21.25;58.60;98644.22;6897469;28;20211;-83
2023/08/05 03:49:23;;;;;;;6.87;6.07;;;;;;;21.30;58.39;98647.78;6898451;28;20204;-82
2023/08/05 03:52:45;;;;;;;6.90;6.17;;;;;;;20.92;59.55;98636.59;6901721;28;20279;-82
2023/08/05 03:56:07;;;;;;;8.40;5.90;;;;;;;21.11;59.28;98647.81;6901231;28;20232;-82
2023/08/05 03:59:29;;;;;;;7.73;5.77;;;;;;;21.06;59.16;98648.66;6900713;28;20220;-82
2023/08/05 04:02:51;;;;;;;6.67;5.70;;;;;;;21.00;59.20;98646.19;6903096;28;20795;-83
2023/08/05 04:06:12;;;;;;;6.23;5.63;;;;;;;21.22;58.52;98639.28;6902739;28;20204;-83
2023/08/05 04:09:35;;;;;;;7.00;5.90;;;;;;;20.90;59.15;98627.84;6902471;28;20295;-82
2023/08/05 04:12:57;;;;;;;6.57;5.93;;;;;;;21.06;58.86;98631.38;6905215;28;20235;-83
2023/08/05 04:16:22;;;;;;;7.80;5.70;;;;;;;21.00;58.36;98613.28;6909976;28;20228;-83
2023/08/05 04:19:45;;;;;;;7.17;6.10;;;;;;;21.29;58.26;98626.94;6898411;28;20204;-82
2023/08/05 04:23:08;;;;;;;11.20;6.20;;;;;;;21.13;58.43;98622.56;6898039;28;20687;-83
2023/08/05 04:26:35;;;;;;;10.30;7.50;;;;;;;21.15;58.21;98630.53;6896988;28;20235;-83
2023/08/05 04:29:58;;;;;;;6.27;5.70;;;;;;;21.02;58.50;98640.13;6898727;28;20193;-83
2023/08/05 04:33:20;;;;;;;9.70;6.07;;;;;;;21.22;57.99;98638.47;6898395;28;20207;-82
2023/08/05 04:36:47;;;;;;;8.77;6.70;;;;;;;21.04;58.70;98639.06;6897693;28;20366;-82
2023/08/05 04:40:10;;;;;;;9.37;5.93;;;;;;;21.27;58.07;98646.69;6897810;28;20597;-82
2023/08/05 04:43:32;;;;;;;9.63;6.40;;;;;;;21.01;58.51;98650.56;6896929;28;20255;-83
2023/08/05 04:46:53;;;;;;;7.17;6.00;;;;;;;20.89;59.00;98658.25;6907698;28;20756;-83
2023/08/05 04:50:16;;;;;;;8.53;6.17;;;;;;;20.90;59.10;98659.88;6909578;28;20228;-82
2023/08/05 04:53:38;;;;;;;8.33;6.70;;;;;;;21.08;58.66;98674.66;6900075;28;20280;-82
2023/08/05 04:56:59;;;;;;;9.20;6.57;;;;;;;21.06;58.58;98658.78;6894394;28;20276;-82
2023/08/05 05:00:21;;;;;;;8.37;6.60;;;;;;;20.93;58.65;98678.53;6899350;28;20302;-82
2023/08/05 05:03:44;;;;;;;8.00;5.90;;;;;;;20.87;58.66;98672.19;6899261;28;20306;-82
2023/08/05 05:07:07;;;;;;;6.53;5.93;;;;;;;20.95;59.33;98673.59;6899151;28;20678;-82
2023/08/05 05:10:29;;;;;;;8.27;6.00;;;;;;;21.13;58.47;98658.22;6899185;28;20264;-82
2023/08/05 05:13:52;;;;;;;8.23;6.20;;;;;;;21.35;57.78;98642.28;6903827;28;20213;-82
2023/08/05 05:17:14;;;;;;;8.30;5.70;;;;;;;21.25;57.73;98650.53;6898004;28;20197;-82
2023/08/05 05:20:36;;;;;;;10.43;5.60;;;;;;;21.17;57.78;98653.00;6898617;28;20322;-82
2023/08/05 05:23:59;;;;;;;7.93;6.73;;;;;;;21.00;57.90;98657.97;6896969;28;20200;-83
2023/08/05 05:27:20;;;;;;;9.17;7.07;;;;;;;21.08;57.99;98652.72;6892975;28;20355;-88
2023/08/05 05:30:42;;;;;;;7.73;6.23;;;;;;;21.32;57.96;98655.72;6892010;28;20315;-86
2023/08/05 05:34:03;;;;;;;7.23;6.53;;;;;;;20.84;59.14;98656.31;6895424;28;20663;-83
2023/08/05 05:37:25;;;;;;;8.47;6.00;;;;;;;21.05;58.62;98660.69;6894897;28;20212;-83
2023/08/05 05:40:47;;;;;;;8.83;6.13;;;;;;;21.43;57.55;98660.09;6896365;28;20240;-83
2023/08/05 05:44:09;;;;;;;7.97;6.00;;;;;;;21.29;57.07;98615.13;6912334;28;20219;-84
2023/08/05 05:47:30;;;;;;;6.87;6.17;;;;;;;21.42;57.25;98659.25;6919095;28;20239;-88
2023/08/05 05:50:52;;;;;;;7.27;5.73;;;;;;;21.03;58.33;98654.66;6906098;28;20758;-83
2023/08/05 05:54:14;;;;;;;7.37;6.57;;;;;;;21.30;57.82;98645.03;6898722;28;20587;-82
2023/08/05 05:57:36;;;;;;;6.97;5.87;;;;;;;21.18;58.16;98652.72;6898476;28;20263;-82
2023/08/05 06:01:00;;;;;;;10.23;5.70;;;;;;;21.08;57.44;98604.50;6914906;28;20244;-83
2023/08/05 06:04:24;;;;;;;7.30;5.40;;;;;;;21.27;57.27;98634.63;6915333;28;20231;-82
2023/08/05 06:07:45;;;;;;;10.13;5.23;;;;;;;21.22;57.90;98647.50;6914213;28;20217;-83
2023/08/05 06:11:07;;;;;;;9.93;6.00;;;;;;;21.36;57.48;98638.44;6913821;28;20232;-83
2023/08/05 06:14:30;;;;;;;6.50;5.17;;;;;;;21.33;57.58;98636.25;6905896;28;20231;-82
2023/08/05 06:17:51;;;;;;;7.07;5.93;;;;;;;21.32;57.19;98644.75;6895823;28;20208;-82
2023/08/05 06:21:13;;;;;;;6.67;5.33;;;;;;;21.13;58.27;98636.28;6895592;28;20262;-82
2023/08/05 06:24:34;;;;;;;5.87;5.23;;;;;;;21.37;57.25;98637.31;6896297;28;20225;-80
2023/08/05 06:27:56;;;;;;;6.53;5.73;;;;;;;21.44;56.89;98640.63;6896314;28;20224;-82
2023/08/05 06:31:19;;;;;;;8.00;5.97;;;;;;;21.64;56.69;98628.72;6898379;28;20236;-82
2023/08/05 06:34:40;;;;;;;5.50;5.00;;;;;;;21.67;56.39;98640.00;6896288;28;20768;-82
2023/08/05 06:38:02;;;;;;;6.47;5.17;;;;;;;21.92;55.44;98636.34;6898436;28;20303;-81
2023/08/05 06:41:24;;;;;;;6.10;5.17;;;;;;;22.04;55.58;98632.16;6906116;28;20221;-82
2023/08/05 06:44:47;;;;;;;6.27;5.60;;;;;;;22.24;54.51;98625.75;6912438;28;20211;-82
2023/08/05 06:48:10;;;;;;;5.23;4.60;;;;;;;22.46;53.93;98624.25;6897612;28;20205;-88
2023/08/05 06:51:32;;;;;;;5.17;4.67;;;;;;;22.43;54.08;98619.31;6896229;28;20259;-84
2023/08/05 06:55:04;;;;;;;5.47;4.97;;;;;;;22.41;53.72;98618.75;6895624;28;20235;-85
2023/08/05 06:58:25;;;;;;;9.27;5.27;;;;;;;22.10;54.07;98633.78;6895753;28;20265;-82
2023/08/05 07:01:49;;;;;;;6.23;5.53;;;;;;;22.15;53.94;98540.38;6895962;28;20284;-83
2023/08/05 07:05:12;;;;;;;6.87;5.20;;;;;;;22.35;53.76;98617.13;6897040;28;20291;-84
2023/08/05 07:08:34;;;;;;;5.33;4.83;;;;;;;22.05;54.55;98620.06;6897222;28;20210;-84
2023/08/05 07:11:56;;;;;;;8.83;4.73;;;;;;;22.67;53.33;98614.72;6897348;28;20240;-83
2023/08/05 07:15:18;;;;;;;6.23;4.77;;;;;;;22.85;52.65;98610.47;6897551;28;20256;-84
2023/08/05 07:18:39;;;;;;;6.50;4.73;;;;;;;22.81;52.96;98610.22;6896967;28;20247;-85
2023/08/05 07:22:02;;;;;;;7.03;4.27;;;;;;;23.04;52.33;98598.44;6897445;28;20311;-84
2023/08/05 07:25:24;;;;;;;6.40;4.53;;;;;;;23.40;50.87;98612.66;6897948;28;20284;-84
2023/08/05 07:28:45;;;;;;;5.10;4.60;;;;;;;22.68;52.42;98602.63;6896577;28;20295;-84
2023/08/05 07:32:08;;;;;;;4.97;4.57;;;;;;;23.04;51.61;98562.69;6897277;28;20257;-84
2023/08/05 07:35:29;;;;;;;11.10;4.50;;;;;;;22.70;52.33;98566.59;6896697;28;20316;-84
2023/08/05 07:38:54;;;;;;;5.77;4.27;;;;;;;23.19;51.65;98616.78;6894780;28;20242;-84
2023/08/05 07:42:18;;;;;;;6.53;4.13;;;;;;;23.22;51.07;98611.50;6892741;28;20272;-84
2023/08/05 07:45:40;;;;;;;4.70;4.20;;;;;;;23.23;51.35;98613.13;6885259;28;20208;-84
2023/08/05 07:49:03;;;;;;;5.20;4.10;;;;;;;23.16;51.16;98598.03;6891332;28;20296;-84
2023/08/05 07:52:25;;;;;;;6.23;4.30;;;;;;;23.55;49.98;98596.78;6894175;28;20229;-84
2023/08/05 07:55:48;;;;;;;6.17;4.37;;;;;;;24.10;49.85;98607.13;6890870;28;20372;-84
2023/08/05 07:59:12;;;;;;;6.63;4.83;;;;;;;24.38;49.13;98617.22;6892691;28;20599;-84
2023/08/05 08:02:34;;;;;;;10.07;4.70;;;;;;;24.15;48.63;98598.81;6899626;28;20253;-84
2023/08/05 08:05:55;;;;;;;6.00;3.80;;;;;;;24.20;49.24;98597.91;6892117;28;20678;-84
2023/08/05 08:09:17;;;;;;;4.33;3.93;;;;;;;24.04;49.64;98594.56;6894365;28;20301;-84
2023/08/05 08:12:40;;;;;;;5.20;4.23;;;;;;;24.15;48.99;98593.31;6895423;28;20304;-84
2023/08/05 08:16:01;;;;;;;5.40;3.90;;;;;;;24.27;48.21;98543.25;6894295;28;20286;-86
2023/08/05 08:19:23;;;;;;;8.57;4.43;;;;;;;23.76;49.83;98600.94;6891382;28;20217;-84
2023/08/05 08:22:45;;;;;;;6.20;4.37;;;;;;;24.19;49.13;98591.56;6890626;28;20259;-84
2023/08/05 08:26:06;;;;;;;5.97;4.00;;;;;;;25.34;47.17;98586.91;6890044;28;20215;-84
2023/08/05 08:29:29;;;;;;;4.20;3.70;;;;;;;25.41;46.00;98572.69;6890038;28;20309;-84
2023/08/05 08:32:50;;;;;;;5.77;4.10;;;;;;;25.08;46.26;98574.66;6901468;28;20321;-84
2023/08/05 08:36:12;;;;;;;4.87;4.33;;;;;;;24.78;47.40;98571.66;6892135;28;20365;-84
2023/08/05 08:39:33;;;;;;;6.17;3.90;;;;;;;25.56;45.22;98558.59;6891836;28;20266;-84
2023/08/05 08:42:55;;;;;;;5.60;3.87;;;;;;;26.18;43.92;98553.06;6891272;28;20286;-83
2023/08/05 08:46:19;;;;;;;4.43;3.53;;;;;;;26.04;45.01;98574.41;6895261;28;20248;-84
2023/08/05 08:49:41;;;;;;;6.13;4.83;;;;;;;25.10;46.83;98566.91;6889720;28;20341;-84
2023/08/05 08:53:02;;;;;;;5.00;3.23;;;;;;;27.07;41.92;98567.75;6889442;28;20271;-84
2023/08/05 08:56:24;;;;;;;5.23;4.10;;;;;;;27.34;40.95;98573.13;6890196;28;20295;-87
2023/08/05 08:59:46;;;;;;;5.50;3.80;;;;;;;26.71;42.15;98559.53;6889389;28;20373;-84
2023/08/05 09:03:10;;;;;;;6.77;4.20;;;;;;;25.60;43.99;98571.47;6888860;28;21000;-84
2023/08/05 09:06:32;;;;;;;5.43;3.73;;;;;;;26.73;42.71;98573.06;6887926;28;20335;-83
2023/08/05 09:09:54;;;;;;;4.33;3.30;;;;;;;27.20;41.83;98559.38;6888650;28;20197;-84
2023/08/05 09:13:16;;;;;;;4.73;3.40;;;;;;;26.81;42.15;98553.75;6886636;28;20201;-85
2023/08/05 09:16:56;;;;;;;4.23;3.33;;;;;;;26.96;42.76;98556.13;6861360;28;20235;-85
2023/08/05 09:20:22;;;;;;;3.77;3.30;;;;;;;28.04;39.96;98563.59;6861531;28;20334;-85
2023/08/05 09:23:47;;;;;;;4.63;3.47;;;;;;;27.77;39.65;98551.94;6863027;28;20213;-84
2023/08/05 09:27:09;;;;;;;4.50;3.20;;;;;;;27.88;39.36;98553.28;6876322;28;20222;-84
2023/08/05 09:30:30;;;;;;;4.80;3.13;;;;;;;28.08;39.31;98538.81;6906657;28;20653;-85
2023/08/05 09:33:52;;;;;;;3.27;2.83;;;;;;;28.55;39.28;98544.22;6915582;28;20682;-84
2023/08/05 09:37:15;;;;;;;5.13;3.60;;;;;;;28.80;37.94;98542.56;6898427;28;20312;-84
2023/08/05 09:40:41;;;;;;;3.80;3.50;;;;;;;27.74;39.19;98538.72;6893718;28;20229;-84
2023/08/05 09:44:04;;;;;;;4.20;2.93;;;;;;;28.19;38.70;98523.50;6890670;28;20189;-86
2023/08/05 09:47:29;;;;;;;3.37;2.50;;;;;;;29.82;35.97;98522.75;6888898;28;20205;-85
2023/08/05 09:50:51;;;;;;;4.27;3.00;;;;;;;29.20;36.44;98533.66;6889545;28;20230;-85
2023/08/05 09:54:16;;;;;;;3.00;2.70;;;;;;;28.49;37.21;98526.09;6889218;28;20206;-85
2023/08/05 09:57:37;;;;;;;4.23;2.90;;;;;;;29.15;36.19;98481.09;6861849;28;20260;-85
2023/08/05 10:00:59;;;;;;;3.83;2.97;;;;;;;28.48;38.06;98520.91;6861573;28;20736;-85
2023/08/05 10:04:22;;;;;;;2.90;2.67;;;;;;;27.77;38.70;98518.69;6861659;28;20197;-84
2023/08/05 10:07:43;;;;;;;2.73;2.53;;;;;;;28.32;38.49;98503.09;6860794;28;20266;-85
2023/08/05 10:11:07;;;;;;;2.87;2.53;;;;;;;27.56;37.62;98506.56;6862454;28;20320;-85
2023/08/05 10:14:29;;;;;;;5.87;3.50;;;;;;;26.31;40.94;98507.19;6866121;28;20602;-83
2023/08/05 10:17:50;;;;;;;3.30;2.87;;;;;;;26.38;39.88;98461.38;6870282;28;20776;-84
2023/08/05 10:21:12;;;;;;;2.50;2.30;;;;;;;27.55;38.44;98502.97;6865886;28;20697;-85
2023/08/05 10:24:55;;;;;;;3.70;2.80;;;;;;;27.06;38.93;98499.66;6873008;28;20205;-85
2023/08/05 10:28:43;;;;;;;3.37;3.03;;;;;;;26.22;39.67;98493.28;6873513;28;20237;-85
2023/08/05 10:32:10;;;;;;;5.30;2.80;;;;;;;27.60;37.92;98496.50;6865992;28;20233;-85
2023/08/05 10:35:32;;;;;;;4.37;2.73;;;;;;;26.82;39.60;98493.69;6866766;28;20758;-92
2023/08/05 10:38:54;;;;;;;3.17;2.70;;;;;;;26.24;40.48;98491.00;6880912;28;20299;-86
2023/08/05 10:42:34;;;;;;;3.07;2.63;;;;;;;26.46;40.89;98491.03;6893199;28;20236;-90
2023/08/05 10:45:59;;;;;;;3.80;2.40;;;;;;;25.69;39.68;98489.53;6892914;28;20558;-90
2023/08/05 10:49:22;;;;;;;3.80;2.70;;;;;;;25.77;40.77;98488.00;6892784;28;20339;-85
2023/08/05 10:52:43;;;;;;;3.20;2.40;;;;;;;26.54;39.08;98457.09;6895291;28;20310;-83
2023/08/05 10:56:09;;;;;;;3.47;2.80;;;;;;;26.36;40.58;98471.91;6894290;28;20268;-84
2023/08/05 10:59:57;;;;;;;2.60;2.40;;;;;;;26.70;39.13;98474.94;6889682;28;20294;-83
2023/08/05 11:03:31;;;;;;;2.83;2.50;;;;;;;26.12;40.75;98465.09;6865680;28;20368;-83
2023/08/05 11:06:53;;;;;;;3.83;2.30;;;;;;;26.82;39.04;98466.84;6866159;28;20273;-82
2023/08/05 11:10:14;;;;;;;2.97;2.57;;;;;;;26.73;38.92;98446.63;6866900;28;20379;-82
2023/08/05 11:13:37;;;;;;;2.47;2.27;;;;;;;27.26;37.62;98463.97;6867842;28;20346;-82
2023/08/05 11:17:02;;;;;;;4.13;2.40;;;;;;;27.65;37.19;98452.81;6866098;28;20247;-83
2023/08/05 11:20:32;;;;;;;2.47;2.27;;;;;;;28.45;36.35;98441.94;6866561;28;20694;-81
2023/08/05 11:23:54;;;;;;;2.40;2.20;;;;;;;27.97;35.64;98446.03;6866143;28;20642;-82
2023/08/05 11:27:15;;;;;;;2.03;1.93;;;;;;;26.67;39.72;98425.75;6865701;28;20344;-81
2023/08/05 11:30:39;;;;;;;8.40;4.87;;;;;;;27.96;34.32;98431.34;6866449;28;20292;-82
2023/08/05 11:34:01;;;;;;;5.97;3.37;;;;;;;28.29;33.91;98399.19;6866816;28;20247;-82
2023/08/05 11:37:24;;;;;;;4.00;2.40;;;;;;;29.24;33.54;98394.97;6865354;28;20241;-82
2023/08/05 11:40:48;;;;;;;2.50;2.23;;;;;;;28.99;34.11;98402.28;6866208;28;20249;-82
2023/08/05 11:44:09;;;;;;;2.30;2.10;;;;;;;29.00;33.96;98405.84;6884182;28;20351;-82
2023/08/05 11:47:31;;;;;;;2.90;2.30;;;;;;;28.84;34.01;98352.03;6893220;28;20676;-81
2023/08/05 11:50:57;;;;;;;2.77;2.10;;;;;;;29.87;33.46;98392.72;6894462;28;20290;-82
2023/08/05 11:54:28;;;;;;;2.40;2.13;;;;;;;29.17;33.96;98380.75;6895864;28;20593;-81
2023/08/05 11:58:00;;;;;;;3.00;2.23;;;;;;;28.49;35.57;98375.50;6893228;28;20244;-82
2023/08/05 12:01:22;;;;;;;2.57;2.37;;;;;;;27.57;36.87;98369.69;6892239;28;20306;-82
2023/08/05 12:04:44;;;;;;;2.87;2.30;;;;;;;28.40;35.85;98369.16;6892961;28;20246;-82
2023/08/05 12:08:06;;;;;;;2.30;2.10;;;;;;;28.60;34.06;98349.84;6890773;28;20224;-82
2023/08/05 12:11:29;;;;;;;2.50;2.30;;;;;;;28.18;35.49;98374.91;6886158;28;20242;-82
2023/08/05 12:14:50;;;;;;;2.60;2.27;;;;;;;27.43;37.35;98372.63;6892518;28;20223;-82
2023/08/05 12:18:12;;;;;;;2.53;2.33;;;;;;;28.15;35.67;98358.94;6891405;28;20291;-82
2023/08/05 12:21:33;;;;;;;3.83;2.23;;;;;;;28.39;34.79;98360.03;6891521;28;20359;-82
2023/08/05 12:24:55;;;;;;;2.43;2.23;;;;;;;28.30;34.70;98352.88;6892177;28;20239;-83
2023/08/05 12:28:18;;;;;;;2.87;2.10;;;;;;;27.89;34.88;98342.34;6888301;28;20253;-82
2023/08/05 12:31:39;;;;;;;2.30;2.10;;;;;;;28.20;35.06;98342.91;6864731;28;20229;-82
2023/08/05 12:35:01;;;;;;;3.20;2.40;;;;;;;28.39;33.68;98282.38;6890641;28;20577;-82
2023/08/05 12:38:23;;;;;;;2.63;2.40;;;;;;;29.38;31.55;98360.19;6891087;28;20224;-81
2023/08/05 12:41:44;;;;;;;2.97;2.00;;;;;;;28.83;32.73;98353.97;6893261;28;20280;-81
2023/08/05 12:45:08;;;;;;;3.33;1.97;;;;;;;29.35;32.73;98349.78;6892393;28;20206;-84
2023/08/05 12:48:30;;;;;;;2.40;2.00;;;;;;;28.06;33.22;98319.31;6894718;28;20232;-82
2023/08/05 12:51:51;;;;;;;2.63;2.23;;;;;;;29.00;33.05;98351.16;6895616;28;20311;-82
2023/08/05 12:55:13;;;;;;;2.43;2.20;;;;;;;28.68;33.49;98340.69;6896990;28;20236;-81
2023/08/05 12:58:35;;;;;;;3.17;2.20;;;;;;;29.94;31.64;98328.22;6893653;28;20215;-82
2023/08/05 13:01:57;;;;;;;2.47;2.27;;;;;;;29.34;32.04;98323.16;6894224;28;20240;-81
2023/08/05 13:05:19;;;;;;;14.03;12.77;;;;;;;29.63;31.39;98317.56;6893604;28;20229;-83
2023/08/05 13:08:41;;;;;;;5.97;5.27;;;;;;;29.91;32.13;98282.44;6893554;28;20210;-82
2023/08/05 13:12:05;;;;;;;3.20;2.43;;;;;;;30.35;32.34;98315.03;6899275;28;20638;-82
2023/08/05 13:15:26;;;;;;;3.47;2.30;;;;;;;28.91;33.12;98303.16;6881557;28;20210;-82
2023/08/05 13:18:49;;;;;;;2.43;2.27;;;;;;;29.32;32.14;98311.56;6895248;28;20267;-81
2023/08/05 13:22:11;;;;;;;2.43;2.20;;;;;;;30.27;31.14;98292.88;6891688;28;20718;-81
2023/08/05 13:25:32;;;;;;;2.43;2.23;;;;;;;29.58;32.68;98298.31;6890835;28;20823;-87
2023/08/05 13:28:53;;;;;;;2.47;2.27;;;;;;;29.55;32.40;98290.63;6891859;28;20345;-82
2023/08/05 13:32:15;;;;;;;2.97;2.40;;;;;;;28.04;34.69;98289.16;6893869;28;20260;-82
2023/08/05 13:35:38;;;;;;;2.87;2.33;;;;;;;28.16;34.34;98283.75;6883237;28;20240;-82
2023/08/05 13:38:59;;;;;;;3.60;2.20;;;;;;;27.94;35.97;98275.66;6865409;28;20329;-80
2023/08/05 13:42:21;;;;;;;2.70;2.40;;;;;;;27.26;35.67;98283.22;6866523;28;20262;-81
2023/08/05 13:45:48;;;;;;;2.50;2.30;;;;;;;27.59;35.20;98278.78;6870049;28;20565;-82
2023/08/05 13:49:09;;;;;;;2.70;2.50;;;;;;;27.98;35.58;98245.31;6869189;28;20263;-80
2023/08/05 13:52:32;;;;;;;3.30;2.53;;;;;;;27.61;35.92;98260.69;6867548;28;20364;-81
2023/08/05 13:55:54;;;;;;;2.73;2.47;;;;;;;27.78;35.70;98257.91;6865084;28;20229;-81
2023/08/05 13:59:16;;;;;;;3.17;2.83;;;;;;;28.15;35.11;98251.63;6867926;28;20349;-81
2023/08/05 14:02:37;;;;;;;3.03;2.60;;;;;;;29.20;33.93;98257.91;6869229;28;20262;-81
2023/08/05 14:05:59;;;;;;;3.20;2.43;;;;;;;28.86;33.64;98241.47;6878204;28;20215;-81
2023/08/05 14:09:22;;;;;;;2.57;2.37;;;;;;;29.35;32.95;98252.56;6895839;28;20294;-81
2023/08/05 14:12:45;;;;;;;3.00;2.43;;;;;;;28.69;33.36;98236.88;6893937;28;20231;-82
2023/08/05 14:16:06;;;;;;;3.17;2.27;;;;;;;28.03;35.06;98240.44;6888197;28;20300;-81
2023/08/05 14:19:28;;;;;;;2.80;2.43;;;;;;;27.35;34.89;98243.28;6895542;28;20296;-81
2023/08/05 14:22:49;;;;;;;2.33;2.13;;;;;;;27.57;34.75;98203.50;6893551;28;20363;-81
2023/08/05 14:26:12;;;;;;;2.80;2.23;;;;;;;28.26;34.20;98218.78;6891589;28;20221;-82
2023/08/05 14:29:33;;;;;;;2.70;2.50;;;;;;;28.05;34.12;98227.03;6892271;28;20218;-83
2023/08/05 14:32:55;;;;;;;3.60;2.70;;;;;;;27.96;34.26;98231.00;6892308;28;20314;-83
2023/08/05 14:36:16;;;;;;;4.83;2.40;;;;;;;28.38;33.84;98227.25;6891792;28;20297;-83
2023/08/05 14:39:38;;;;;;;2.83;2.47;;;;;;;28.52;34.28;98203.69;6892180;28;20200;-83
2023/08/05 14:43:01;;;;;;;3.53;2.50;;;;;;;28.20;33.82;98209.03;6892376;28;20312;-82
2023/08/05 14:46:23;;;;;;;2.70;2.50;;;;;;;28.21;33.41;98169.06;6890272;28;20260;-82
2023/08/05 14:49:45;;;;;;;3.97;2.33;;;;;;;28.22;33.66;98215.06;6887523;28;20293;-82
2023/08/05 14:53:07;;;;;;;3.13;2.30;;;;;;;28.58;33.37;98215.38;6894372;28;20283;-82
2023/08/05 14:56:28;;;;;;;3.60;2.60;;;;;;;28.65;33.83;98208.16;6895208;28;20436;-82
2023/08/05 14:59:53;;;;;;;3.80;2.63;;;;;;;28.73;33.12;98203.69;6899343;28;20280;-82
2023/08/05 15:03:15;;;;;;;3.03;1.93;;;;;;;28.47;32.43;98200.25;6902096;28;20220;-82
2023/08/05 15:06:37;;;;;;;2.33;2.13;;;;;;;28.41;34.03;98176.66;6912011;28;20259;-82
2023/08/05 15:09:58;;;;;;;2.67;2.47;;;;;;;27.96;34.24;98195.75;6916665;28;20230;-82
2023/08/05 15:13:20;;;;;;;2.87;2.67;;;;;;;28.52;33.52;98184.25;6919491;28;20234;-82
2023/08/05 15:16:42;;;;;;;2.57;2.37;;;;;;;29.05;32.40;98189.09;6918163;28;20252;-82
2023/08/05 15:20:05;;;;;;;3.20;2.40;;;;;;;29.19;32.46;98175.78;6908309;28;20215;-82
2023/08/05 15:23:26;;;;;;;2.80;2.60;;;;;;;29.22;32.50;98177.84;6900656;28;20237;-80
2023/08/05 15:26:48;;;;;;;2.97;2.00;;;;;;;28.11;33.42;98175.81;6901426;28;20689;-80
2023/08/05 15:30:11;;;;;;;3.93;2.30;;;;;;;27.63;33.84;98169.78;6901734;28;20322;-81
2023/08/05 15:33:33;;;;;;;5.63;2.63;;;;;;;28.69;32.65;98172.22;6902714;28;20219;-81
2023/08/05 15:36:59;;;;;;;2.47;2.27;;;;;;;29.45;31.64;98166.03;6900507;28;20248;-80
2023/08/05 15:40:21;;;;;;;3.00;2.30;;;;;;;29.44;31.29;98158.84;6901679;28;20242;-81
2023/08/05 15:43:42;;;;;;;2.20;2.10;;;;;;;28.49;32.90;98167.47;6901220;28;20294;-81
2023/08/05 15:47:05;;;;;;;2.50;2.10;;;;;;;28.82;33.56;98157.25;6902901;28;20251;-81
2023/08/05 15:50:27;;;;;;;2.77;2.50;;;;;;;29.34;31.56;98150.94;6881206;28;20358;-81
2023/08/05 15:53:49;;;;;;;3.57;2.33;;;;;;;28.82;32.19;98148.94;6899977;28;20228;-80